sensor_id;sensor_type;location;lat;lon;timestamp;temperature;humidity
20068;DHT22;10194;50.824;7.134;2023-03-01T00:01:19;-1.70;99.90
20068;DHT22;10194;50.824;7.134;2023-03-01T00:03:56;-1.70;99.90
20068;DHT22;10194;50.824;7.134;2023-03-01T00:06:25;-1.60;99.90
20068;DHT22;10194;50.824;7.134;2023-03-01T00:08:51;-1.40;99.90
20068;DHT22;10194;50.824;7.134;2023-03-01T00:11:24;-1.20;99.90
20068;DHT22;10194;50.824;7.134;2023-03-01T00:13:56;-1.10;99.90
20068;DHT22;10194;50.824;7.134;2023-03-01T00:16:26;-1.10;99.90
20068;DHT22;10194;50.824;7.134;2023-03-01T00:18:57;-0.80;99.90
20068;DHT22;10194;50.824;7.134;2023-03-01T00:21:24;-0.60;99.90
20068;DHT22;10194;50.824;7.134;2023-03-01T00:23:50;-0.60;99.90
20068;DHT22;10194;50.824;7.134;2023-03-01T00:26:18;-0.40;99.90
20068;DHT22;10194;50.824;7.134;2023-03-01T00:28:45;-0.40;99.90
20068;DHT22;10194;50.824;7.134;2023-03-01T00:31:22;-0.30;99.90
20068;DHT22;10194;50.824;7.134;2023-03-01T00:33:56;-0.30;99.90
20068;DHT22;10194;50.824;7.134;2023-03-01T00:36:28;-0.40;99.90
20068;DHT22;10194;50.824;7.134;2023-03-01T00:38:56;-0.30;99.90
20068;DHT22;10194;50.824;7.134;2023-03-01T00:41:23;-0.40;99.90
20068;DHT22;10194;50.824;7.134;2023-03-01T00:43:49;-0.40;99.90
20068;DHT22;10194;50.824;7.134;2023-03-01T00:46:18;-0.40;99.90
20068;DHT22;10194;50.824;7.134;2023-03-01T00:48:45;-0.40;99.90
20068;DHT22;10194;50.824;7.134;2023-03-01T00:51:17;-0.50;99.90
20068;DHT22;10194;50.824;7.134;2023-03-01T00:53:46;-0.50;99.90
20068;DHT22;10194;50.824;7.134;2023-03-01T00:56:14;-0.60;99.90
20068;DHT22;10194;50.824;7.134;2023-03-01T00:58:40;-0.50;99.90
20068;DHT22;10194;50.824;7.134;2023-03-01T01:03:47;-0.60;99.90
20068;DHT22;10194;50.824;7.134;2023-03-01T01:06:25;-0.70;99.90
20068;DHT22;10194;50.824;7.134;2023-03-01T01:08:53;-0.70;99.90
20068;DHT22;10194;50.824;7.134;2023-03-01T01:11:22;-0.90;99.90
20068;DHT22;10194;50.824;7.134;2023-03-01T01:13:49;-1.00;99.90
20068;DHT22;10194;50.824;7.134;2023-03-01T01:16:16;-1.10;99.90
20068;DHT22;10194;50.824;7.134;2023-03-01T01:18:44;-1.20;99.90
20068;DHT22;10194;50.824;7.134;2023-03-01T01:21:16;-1.30;99.90
20068;DHT22;10194;50.824;7.134;2023-03-01T01:23:43;-1.40;99.90
20068;DHT22;10194;50.824;7.134;2023-03-01T01:26:12;-1.50;99.90
20068;DHT22;10194;50.824;7.134;2023-03-01T01:28:40;-1.60;99.90
20068;DHT22;10194;50.824;7.134;2023-03-01T01:31:06;-1.60;99.90
20068;DHT22;10194;50.824;7.134;2023-03-01T01:33:32;-1.80;99.90
20068;DHT22;10194;50.824;7.134;2023-03-01T01:35:58;-1.80;99.90
20068;DHT22;10194;50.824;7.134;2023-03-01T01:38:24;-1.90;99.90
20068;DHT22;10194;50.824;7.134;2023-03-01T01:40:50;-1.90;99.90
20068;DHT22;10194;50.824;7.134;2023-03-01T01:43:20;-2.00;99.90
20068;DHT22;10194;50.824;7.134;2023-03-01T01:45:50;-2.10;99.90
20068;DHT22;10194;50.824;7.134;2023-03-01T01:48:22;-2.20;99.90
20068;DHT22;10194;50.824;7.134;2023-03-01T01:50:59;-2.20;99.90
20068;DHT22;10194;50.824;7.134;2023-03-01T01:53:26;-2.20;99.90
20068;DHT22;10194;50.824;7.134;2023-03-01T01:55:57;-2.30;99.90
20068;DHT22;10194;50.824;7.134;2023-03-01T01:58:25;-2.30;99.90
20068;DHT22;10194;50.824;7.134;2023-03-01T02:00:53;-2.40;99.90
20068;DHT22;10194;50.824;7.134;2023-03-01T02:03:24;-2.40;99.90
20068;DHT22;10194;50.824;7.134;2023-03-01T02:08:33;-2.50;99.90
20068;DHT22;10194;50.824;7.134;2023-03-01T02:11:02;-2.50;99.90
20068;DHT22;10194;50.824;7.134;2023-03-01T02:13:31;-2.50;99.90
20068;DHT22;10194;50.824;7.134;2023-03-01T02:15:59;-2.50;99.90
20068;DHT22;10194;50.824;7.134;2023-03-01T02:18:25;-2.50;99.90
20068;DHT22;10194;50.824;7.134;2023-03-01T02:23:43;-2.60;99.90
20068;DHT22;10194;50.824;7.134;2023-03-01T02:27:03;-2.60;99.90
20068;DHT22;10194;50.824;7.134;2023-03-01T02:29:04;-2.60;99.90
20068;DHT22;10194;50.824;7.134;2023-03-01T02:31:31;-2.60;99.90
20068;DHT22;10194;50.824;7.134;2023-03-01T02:34:15;-2.60;99.90
20068;DHT22;10194;50.824;7.134;2023-03-01T02:36:55;-2.60;99.90
20068;DHT22;10194;50.824;7.134;2023-03-01T02:39:33;-2.60;99.90
20068;DHT22;10194;50.824;7.134;2023-03-01T02:42:08;-2.70;99.90
20068;DHT22;10194;50.824;7.134;2023-03-01T02:44:36;-2.60;99.90
20068;DHT22;10194;50.824;7.134;2023-03-01T02:47:03;-2.70;99.90
20068;DHT22;10194;50.824;7.134;2023-03-01T02:49:31;-2.80;99.90
20068;DHT22;10194;50.824;7.134;2023-03-01T02:55:17;-3.00;99.90
20068;DHT22;10194;50.824;7.134;2023-03-01T02:57:44;-3.00;99.90
20068;DHT22;10194;50.824;7.134;2023-03-01T03:00:35;-3.10;99.90
20068;DHT22;10194;50.824;7.134;2023-03-01T03:03:05;-3.10;99.90
20068;DHT22;10194;50.824;7.134;2023-03-01T03:05:32;-3.10;99.90
20068;DHT22;10194;50.824;7.134;2023-03-01T03:08:00;-3.10;99.90
20068;DHT22;10194;50.824;7.134;2023-03-01T03:10:29;-3.20;99.90
20068;DHT22;10194;50.824;7.134;2023-03-01T03:13:02;-3.20;99.90
20068;DHT22;10194;50.824;7.134;2023-03-01T03:15:29;-3.20;99.90
20068;DHT22;10194;50.824;7.134;2023-03-01T03:17:57;-3.20;99.90
20068;DHT22;10194;50.824;7.134;2023-03-01T03:20:26;-3.20;99.90
20068;DHT22;10194;50.824;7.134;2023-03-01T03:22:55;-3.30;99.90
20068;DHT22;10194;50.824;7.134;2023-03-01T03:25:22;-3.30;99.90
20068;DHT22;10194;50.824;7.134;2023-03-01T03:27:50;-3.40;99.90
20068;DHT22;10194;50.824;7.134;2023-03-01T03:30:23;-3.40;99.90
20068;DHT22;10194;50.824;7.134;2023-03-01T03:32:54;-3.40;99.90
20068;DHT22;10194;50.824;7.134;2023-03-01T03:35:23;-3.40;99.90
20068;DHT22;10194;50.824;7.134;2023-03-01T03:37:51;-3.40;99.90
20068;DHT22;10194;50.824;7.134;2023-03-01T03:40:31;-3.50;99.90
20068;DHT22;10194;50.824;7.134;2023-03-01T03:43:07;-3.50;99.90
20068;DHT22;10194;50.824;7.134;2023-03-01T03:45:35;-3.50;99.90
20068;DHT22;10194;50.824;7.134;2023-03-01T03:48:02;-3.50;99.90
20068;DHT22;10194;50.824;7.134;2023-03-01T03:50:30;-3.60;99.90
20068;DHT22;10194;50.824;7.134;2023-03-01T03:52:56;-3.60;99.90
20068;DHT22;10194;50.824;7.134;2023-03-01T03:55:22;-3.60;99.90
20068;DHT22;10194;50.824;7.134;2023-03-01T03:57:48;-3.60;99.90
20068;DHT22;10194;50.824;7.134;2023-03-01T04:00:18;-3.70;99.90
20068;DHT22;10194;50.824;7.134;2023-03-01T04:02:47;-3.70;99.90
20068;DHT22;10194;50.824;7.134;2023-03-01T04:05:15;-3.70;99.90
20068;DHT22;10194;50.824;7.134;2023-03-01T04:07:43;-3.80;99.90
20068;DHT22;10194;50.824;7.134;2023-03-01T04:10:11;-3.80;99.90
20068;DHT22;10194;50.824;7.134;2023-03-01T04:12:39;-3.70;99.90
20068;DHT22;10194;50.824;7.134;2023-03-01T04:15:07;-3.70;99.90
20068;DHT22;10194;50.824;7.134;2023-03-01T04:17:44;-3.70;99.90
20068;DHT22;10194;50.824;7.134;2023-03-01T04:20:12;-3.80;99.90
20068;DHT22;10194;50.824;7.134;2023-03-01T04:22:43;-3.80;99.90
20068;DHT22;10194;50.824;7.134;2023-03-01T04:25:12;-3.80;99.90
20068;DHT22;10194;50.824;7.134;2023-03-01T04:27:40;-3.80;99.90
20068;DHT22;10194;50.824;7.134;2023-03-01T04:30:07;-3.90;99.90
20068;DHT22;10194;50.824;7.134;2023-03-01T04:32:33;-4.00;99.90
20068;DHT22;10194;50.824;7.134;2023-03-01T04:35:00;-4.00;99.90
20068;DHT22;10194;50.824;7.134;2023-03-01T04:37:26;-4.00;99.90
20068;DHT22;10194;50.824;7.134;2023-03-01T04:39:52;-3.80;99.90
20068;DHT22;10194;50.824;7.134;2023-03-01T04:42:19;-3.90;99.90
20068;DHT22;10194;50.824;7.134;2023-03-01T04:44:45;-3.90;99.90
20068;DHT22;10194;50.824;7.134;2023-03-01T04:47:11;-3.90;99.90
20068;DHT22;10194;50.824;7.134;2023-03-01T04:49:38;-4.00;99.90
20068;DHT22;10194;50.824;7.134;2023-03-01T04:52:04;-3.90;99.90
20068;DHT22;10194;50.824;7.134;2023-03-01T04:54:31;-4.00;99.90
20068;DHT22;10194;50.824;7.134;2023-03-01T04:56:58;-4.10;99.90
20068;DHT22;10194;50.824;7.134;2023-03-01T04:59:24;-4.10;99.90
20068;DHT22;10194;50.824;7.134;2023-03-01T05:01:52;-4.10;99.90
20068;DHT22;10194;50.824;7.134;2023-03-01T05:04:21;-4.10;99.90
20068;DHT22;10194;50.824;7.134;2023-03-01T05:06:47;-4.20;99.90
20068;DHT22;10194;50.824;7.134;2023-03-01T05:09:13;-4.20;99.90
20068;DHT22;10194;50.824;7.134;2023-03-01T05:11:39;-4.20;99.90
20068;DHT22;10194;50.824;7.134;2023-03-01T05:14:06;-4.20;99.90
20068;DHT22;10194;50.824;7.134;2023-03-01T05:16:33;-4.30;99.90
20068;DHT22;10194;50.824;7.134;2023-03-01T05:18:59;-4.30;99.90
20068;DHT22;10194;50.824;7.134;2023-03-01T05:21:25;-4.30;99.90
20068;DHT22;10194;50.824;7.134;2023-03-01T05:23:52;-4.30;99.90
20068;DHT22;10194;50.824;7.134;2023-03-01T05:26:19;-4.20;99.90
20068;DHT22;10194;50.824;7.134;2023-03-01T05:28:47;-4.10;99.90
20068;DHT22;10194;50.824;7.134;2023-03-01T05:31:13;-4.20;99.90
20068;DHT22;10194;50.824;7.134;2023-03-01T05:33:40;-4.20;99.90
20068;DHT22;10194;50.824;7.134;2023-03-01T05:36:09;-4.20;99.90
20068;DHT22;10194;50.824;7.134;2023-03-01T05:38:36;-4.30;99.90
20068;DHT22;10194;50.824;7.134;2023-03-01T05:41:01;-4.30;99.90
20068;DHT22;10194;50.824;7.134;2023-03-01T05:43:30;-4.30;99.90
20068;DHT22;10194;50.824;7.134;2023-03-01T05:45:59;-4.40;99.90
20068;DHT22;10194;50.824;7.134;2023-03-01T05:48:25;-4.40;99.90
20068;DHT22;10194;50.824;7.134;2023-03-01T05:50:51;-4.40;99.90
20068;DHT22;10194;50.824;7.134;2023-03-01T05:53:19;-4.40;99.90
20068;DHT22;10194;50.824;7.134;2023-03-01T05:55:48;-4.40;99.90
20068;DHT22;10194;50.824;7.134;2023-03-01T05:58:17;-4.40;99.90
20068;DHT22;10194;50.824;7.134;2023-03-01T06:00:48;-4.40;99.90
20068;DHT22;10194;50.824;7.134;2023-03-01T06:03:15;-4.40;99.90
20068;DHT22;10194;50.824;7.134;2023-03-01T06:05:42;-4.50;99.90
20068;DHT22;10194;50.824;7.134;2023-03-01T06:08:10;-4.50;99.90
20068;DHT22;10194;50.824;7.134;2023-03-01T06:10:36;-4.50;99.90
20068;DHT22;10194;50.824;7.134;2023-03-01T06:13:05;-4.50;99.90
20068;DHT22;10194;50.824;7.134;2023-03-01T06:15:34;-4.50;99.90
20068;DHT22;10194;50.824;7.134;2023-03-01T06:18:00;-4.50;99.90
20068;DHT22;10194;50.824;7.134;2023-03-01T06:20:28;-4.50;99.90
20068;DHT22;10194;50.824;7.134;2023-03-01T06:22:54;-4.60;99.90
20068;DHT22;10194;50.824;7.134;2023-03-01T06:25:22;-4.50;99.90
20068;DHT22;10194;50.824;7.134;2023-03-01T06:27:48;-4.50;99.90
20068;DHT22;10194;50.824;7.134;2023-03-01T06:30:16;-4.50;99.90
20068;DHT22;10194;50.824;7.134;2023-03-01T06:32:43;-4.50;99.90
20068;DHT22;10194;50.824;7.134;2023-03-01T06:35:11;-4.50;99.90
20068;DHT22;10194;50.824;7.134;2023-03-01T06:37:38;-4.50;99.90
20068;DHT22;10194;50.824;7.134;2023-03-01T06:40:06;-4.60;99.90
20068;DHT22;10194;50.824;7.134;2023-03-01T06:42:38;-4.50;99.90
20068;DHT22;10194;50.824;7.134;2023-03-01T06:45:06;-4.50;99.90
20068;DHT22;10194;50.824;7.134;2023-03-01T06:47:33;-4.50;99.90
20068;DHT22;10194;50.824;7.134;2023-03-01T06:50:02;-4.50;99.90
20068;DHT22;10194;50.824;7.134;2023-03-01T06:52:29;-4.40;99.90
20068;DHT22;10194;50.824;7.134;2023-03-01T06:54:54;-4.30;99.90
20068;DHT22;10194;50.824;7.134;2023-03-01T06:57:20;-4.20;99.90
20068;DHT22;10194;50.824;7.134;2023-03-01T06:59:47;-4.20;99.90
20068;DHT22;10194;50.824;7.134;2023-03-01T07:02:14;-4.30;99.90
20068;DHT22;10194;50.824;7.134;2023-03-01T07:04:41;-4.20;99.90
20068;DHT22;10194;50.824;7.134;2023-03-01T07:07:07;-4.20;99.90
20068;DHT22;10194;50.824;7.134;2023-03-01T07:09:33;-4.10;99.90
20068;DHT22;10194;50.824;7.134;2023-03-01T07:11:59;-4.00;99.90
20068;DHT22;10194;50.824;7.134;2023-03-01T07:14:25;-4.00;99.90
20068;DHT22;10194;50.824;7.134;2023-03-01T07:16:52;-3.80;99.90
20068;DHT22;10194;50.824;7.134;2023-03-01T07:19:18;-3.70;99.90
20068;DHT22;10194;50.824;7.134;2023-03-01T07:21:44;-3.50;99.90
20068;DHT22;10194;50.824;7.134;2023-03-01T07:24:10;-3.30;99.90
20068;DHT22;10194;50.824;7.134;2023-03-01T07:26:36;-3.20;99.90
20068;DHT22;10194;50.824;7.134;2023-03-01T07:29:04;-3.10;99.90
20068;DHT22;10194;50.824;7.134;2023-03-01T07:31:30;-2.60;99.90
20068;DHT22;10194;50.824;7.134;2023-03-01T07:33:56;-2.00;99.90
20068;DHT22;10194;50.824;7.134;2023-03-01T07:36:22;-1.30;99.90
20068;DHT22;10194;50.824;7.134;2023-03-01T07:38:49;-1.00;99.90
20068;DHT22;10194;50.824;7.134;2023-03-01T07:41:15;-1.00;99.90
20068;DHT22;10194;50.824;7.134;2023-03-01T07:43:40;-0.80;99.90
20068;DHT22;10194;50.824;7.134;2023-03-01T07:46:06;-0.40;99.90
20068;DHT22;10194;50.824;7.134;2023-03-01T07:48:33;0.30;99.90
20068;DHT22;10194;50.824;7.134;2023-03-01T07:50:59;0.20;99.90
20068;DHT22;10194;50.824;7.134;2023-03-01T07:53:26;0.10;99.90
20068;DHT22;10194;50.824;7.134;2023-03-01T07:56:07;-0.10;99.90
20068;DHT22;10194;50.824;7.134;2023-03-01T07:58:34;-0.30;99.90
20068;DHT22;10194;50.824;7.134;2023-03-01T08:01:02;-0.40;99.90
20068;DHT22;10194;50.824;7.134;2023-03-01T08:03:29;-0.40;99.90
20068;DHT22;10194;50.824;7.134;2023-03-01T08:05:55;-0.40;99.90
20068;DHT22;10194;50.824;7.134;2023-03-01T08:08:21;-0.40;99.90
20068;DHT22;10194;50.824;7.134;2023-03-01T08:10:47;-0.40;99.90
20068;DHT22;10194;50.824;7.134;2023-03-01T08:13:12;-0.30;99.90
20068;DHT22;10194;50.824;7.134;2023-03-01T08:15:38;-0.20;99.90
20068;DHT22;10194;50.824;7.134;2023-03-01T08:18:04;-0.20;99.90
20068;DHT22;10194;50.824;7.134;2023-03-01T08:20:29;-0.10;99.90
20068;DHT22;10194;50.824;7.134;2023-03-01T08:22:57;0.00;99.90
20068;DHT22;10194;50.824;7.134;2023-03-01T08:25:23;0.10;99.90
20068;DHT22;10194;50.824;7.134;2023-03-01T08:27:49;0.20;99.90
20068;DHT22;10194;50.824;7.134;2023-03-01T08:30:15;0.30;99.90
20068;DHT22;10194;50.824;7.134;2023-03-01T08:32:41;0.40;99.90
20068;DHT22;10194;50.824;7.134;2023-03-01T08:35:07;0.60;99.90
20068;DHT22;10194;50.824;7.134;2023-03-01T08:37:33;0.80;99.90
20068;DHT22;10194;50.824;7.134;2023-03-01T08:40:01;1.00;99.90
20068;DHT22;10194;50.824;7.134;2023-03-01T08:42:32;1.00;99.90
20068;DHT22;10194;50.824;7.134;2023-03-01T08:44:58;1.10;99.90
20068;DHT22;10194;50.824;7.134;2023-03-01T08:47:24;1.10;99.90
20068;DHT22;10194;50.824;7.134;2023-03-01T08:49:51;1.20;99.90
20068;DHT22;10194;50.824;7.134;2023-03-01T08:52:19;1.30;99.90
20068;DHT22;10194;50.824;7.134;2023-03-01T08:54:47;1.40;99.90
20068;DHT22;10194;50.824;7.134;2023-03-01T08:57:13;1.50;99.90
20068;DHT22;10194;50.824;7.134;2023-03-01T08:59:39;1.70;99.90
20068;DHT22;10194;50.824;7.134;2023-03-01T09:02:13;1.80;99.90
20068;DHT22;10194;50.824;7.134;2023-03-01T09:04:40;1.80;99.90
20068;DHT22;10194;50.824;7.134;2023-03-01T09:07:07;1.90;99.90
20068;DHT22;10194;50.824;7.134;2023-03-01T09:09:33;1.90;99.90
20068;DHT22;10194;50.824;7.134;2023-03-01T09:12:00;1.90;99.90
20068;DHT22;10194;50.824;7.134;2023-03-01T09:14:25;2.00;99.90
20068;DHT22;10194;50.824;7.134;2023-03-01T09:16:52;2.00;99.90
20068;DHT22;10194;50.824;7.134;2023-03-01T09:19:18;2.10;99.90
20068;DHT22;10194;50.824;7.134;2023-03-01T09:21:43;2.20;99.90
20068;DHT22;10194;50.824;7.134;2023-03-01T09:24:21;2.20;99.90
20068;DHT22;10194;50.824;7.134;2023-03-01T09:26:48;2.20;99.90
20068;DHT22;10194;50.824;7.134;2023-03-01T09:29:14;2.20;99.90
20068;DHT22;10194;50.824;7.134;2023-03-01T09:31:41;2.40;99.90
20068;DHT22;10194;50.824;7.134;2023-03-01T09:34:08;2.50;99.90
20068;DHT22;10194;50.824;7.134;2023-03-01T09:36:34;2.50;99.90
20068;DHT22;10194;50.824;7.134;2023-03-01T09:39:02;2.40;99.90
20068;DHT22;10194;50.824;7.134;2023-03-01T09:41:47;2.50;99.90
20068;DHT22;10194;50.824;7.134;2023-03-01T09:44:27;2.50;99.90
20068;DHT22;10194;50.824;7.134;2023-03-01T09:46:55;2.50;99.90
20068;DHT22;10194;50.824;7.134;2023-03-01T09:52:37;2.60;99.90
20068;DHT22;10194;50.824;7.134;2023-03-01T09:55:12;2.70;99.90
20068;DHT22;10194;50.824;7.134;2023-03-01T09:57:53;3.10;99.90
20068;DHT22;10194;50.824;7.134;2023-03-01T10:00:43;3.30;99.90
20068;DHT22;10194;50.824;7.134;2023-03-01T10:03:31;3.50;99.90
20068;DHT22;10194;50.824;7.134;2023-03-01T10:06:10;3.60;99.90
20068;DHT22;10194;50.824;7.134;2023-03-01T10:08:58;3.70;99.90
20068;DHT22;10194;50.824;7.134;2023-03-01T10:11:31;3.70;99.90
20068;DHT22;10194;50.824;7.134;2023-03-01T10:17:39;3.80;99.90
20068;DHT22;10194;50.824;7.134;2023-03-01T10:20:26;3.90;99.90
20068;DHT22;10194;50.824;7.134;2023-03-01T10:23:02;4.10;99.90
20068;DHT22;10194;50.824;7.134;2023-03-01T10:25:50;4.20;99.90
20068;DHT22;10194;50.824;7.134;2023-03-01T10:31:28;4.40;99.90
20068;DHT22;10194;50.824;7.134;2023-03-01T10:34:11;4.50;99.90
20068;DHT22;10194;50.824;7.134;2023-03-01T10:36:43;4.50;99.90
20068;DHT22;10194;50.824;7.134;2023-03-01T10:39:16;4.50;99.90
20068;DHT22;10194;50.824;7.134;2023-03-01T10:42:19;4.60;99.90
20068;DHT22;10194;50.824;7.134;2023-03-01T10:44:51;4.70;99.90
20068;DHT22;10194;50.824;7.134;2023-03-01T10:47:26;4.70;99.90
20068;DHT22;10194;50.824;7.134;2023-03-01T10:49:58;4.70;99.90
20068;DHT22;10194;50.824;7.134;2023-03-01T10:52:36;4.70;99.90
20068;DHT22;10194;50.824;7.134;2023-03-01T10:57:42;4.80;99.90
20068;DHT22;10194;50.824;7.134;2023-03-01T11:00:21;5.00;99.90
20068;DHT22;10194;50.824;7.134;2023-03-01T11:03:00;5.10;99.90
20068;DHT22;10194;50.824;7.134;2023-03-01T11:05:28;5.10;99.90
20068;DHT22;10194;50.824;7.134;2023-03-01T11:08:00;5.00;99.90
20068;DHT22;10194;50.824;7.134;2023-03-01T11:10:37;5.10;99.90
20068;DHT22;10194;50.824;7.134;2023-03-01T11:15:59;5.20;99.90
20068;DHT22;10194;50.824;7.134;2023-03-01T11:18:27;5.10;99.90
20068;DHT22;10194;50.824;7.134;2023-03-01T11:20:55;5.20;99.90
20068;DHT22;10194;50.824;7.134;2023-03-01T11:23:22;5.30;99.90
20068;DHT22;10194;50.824;7.134;2023-03-01T11:25:56;5.30;99.90
20068;DHT22;10194;50.824;7.134;2023-03-01T11:28:27;5.40;99.90
20068;DHT22;10194;50.824;7.134;2023-03-01T11:31:07;5.40;99.90
20068;DHT22;10194;50.824;7.134;2023-03-01T11:33:47;5.50;99.90
20068;DHT22;10194;50.824;7.134;2023-03-01T11:36:30;5.50;99.90
20068;DHT22;10194;50.824;7.134;2023-03-01T11:39:22;5.70;99.90
20068;DHT22;10194;50.824;7.134;2023-03-01T11:41:56;5.70;99.90
20068;DHT22;10194;50.824;7.134;2023-03-01T11:44:30;5.70;99.90
20068;DHT22;10194;50.824;7.134;2023-03-01T11:53:20;5.90;97.90
20068;DHT22;10194;50.824;7.134;2023-03-01T12:07:39;6.20;98.10
20068;DHT22;10194;50.824;7.134;2023-03-01T12:10:32;6.20;98.00
20068;DHT22;10194;50.824;7.134;2023-03-01T12:16:36;6.20;98.20
20068;DHT22;10194;50.824;7.134;2023-03-01T12:22:42;6.20;98.10
20068;DHT22;10194;50.824;7.134;2023-03-01T12:38:50;6.70;95.10
20068;DHT22;10194;50.824;7.134;2023-03-01T12:41:43;6.80;95.10
20068;DHT22;10194;50.824;7.134;2023-03-01T12:47:23;6.70;95.10
20068;DHT22;10194;50.824;7.134;2023-03-01T12:49:59;6.70;96.10
20068;DHT22;10194;50.824;7.134;2023-03-01T12:52:44;6.70;96.70
20068;DHT22;10194;50.824;7.134;2023-03-01T12:58:24;7.00;95.10
20068;DHT22;10194;50.824;7.134;2023-03-01T13:09:31;7.10;94.40
20068;DHT22;10194;50.824;7.134;2023-03-01T13:11:59;7.20;93.80
20068;DHT22;10194;50.824;7.134;2023-03-01T13:16:52;7.30;92.60
20068;DHT22;10194;50.824;7.134;2023-03-01T13:19:23;7.20;92.70
20068;DHT22;10194;50.824;7.134;2023-03-01T13:21:52;7.30;91.80
20068;DHT22;10194;50.824;7.134;2023-03-01T13:24:41;7.30;91.20
20068;DHT22;10194;50.824;7.134;2023-03-01T13:29:57;7.50;90.90
20068;DHT22;10194;50.824;7.134;2023-03-01T13:32:32;7.60;90.30
20068;DHT22;10194;50.824;7.134;2023-03-01T13:37:44;7.60;89.30
20068;DHT22;10194;50.824;7.134;2023-03-01T13:45:53;7.70;88.10
20068;DHT22;10194;50.824;7.134;2023-03-01T13:48:26;7.80;87.30
20068;DHT22;10194;50.824;7.134;2023-03-01T13:51:06;8.00;85.80
20068;DHT22;10194;50.824;7.134;2023-03-01T13:53:36;8.00;84.80
20068;DHT22;10194;50.824;7.134;2023-03-01T13:56:23;8.00;83.70
20068;DHT22;10194;50.824;7.134;2023-03-01T13:58:59;8.00;84.20
20068;DHT22;10194;50.824;7.134;2023-03-01T14:01:33;8.10;83.00
20068;DHT22;10194;50.824;7.134;2023-03-01T14:04:02;8.10;83.20
20068;DHT22;10194;50.824;7.134;2023-03-01T14:06:30;8.20;80.70
20068;DHT22;10194;50.824;7.134;2023-03-01T14:09:30;8.30;80.40
20068;DHT22;10194;50.824;7.134;2023-03-01T14:22:57;8.40;81.20
20068;DHT22;10194;50.824;7.134;2023-03-01T14:25:29;8.40;80.80
20068;DHT22;10194;50.824;7.134;2023-03-01T14:28:03;8.60;81.30
20068;DHT22;10194;50.824;7.134;2023-03-01T14:30:36;8.60;78.70
20068;DHT22;10194;50.824;7.134;2023-03-01T14:33:05;8.50;78.80
20068;DHT22;10194;50.824;7.134;2023-03-01T14:35:42;8.50;80.30
20068;DHT22;10194;50.824;7.134;2023-03-01T14:38:21;8.40;81.20
20068;DHT22;10194;50.824;7.134;2023-03-01T14:40:49;8.40;81.70
20068;DHT22;10194;50.824;7.134;2023-03-01T14:43:20;8.50;83.20
20068;DHT22;10194;50.824;7.134;2023-03-01T14:45:49;8.60;83.90
20068;DHT22;10194;50.824;7.134;2023-03-01T14:48:15;8.50;83.60
20068;DHT22;10194;50.824;7.134;2023-03-01T14:50:43;8.60;84.90
20068;DHT22;10194;50.824;7.134;2023-03-01T14:53:18;8.60;84.70
20068;DHT22;10194;50.824;7.134;2023-03-01T14:55:48;8.60;84.00
20068;DHT22;10194;50.824;7.134;2023-03-01T14:58:21;8.50;82.70
20068;DHT22;10194;50.824;7.134;2023-03-01T15:00:53;8.70;82.30
20068;DHT22;10194;50.824;7.134;2023-03-01T15:03:42;8.70;82.30
20068;DHT22;10194;50.824;7.134;2023-03-01T15:06:15;8.70;83.50
20068;DHT22;10194;50.824;7.134;2023-03-01T15:08:50;8.80;82.90
20068;DHT22;10194;50.824;7.134;2023-03-01T15:11:22;8.70;82.00
20068;DHT22;10194;50.824;7.134;2023-03-01T15:13:50;8.70;82.00
20068;DHT22;10194;50.824;7.134;2023-03-01T15:16:19;8.70;81.80
20068;DHT22;10194;50.824;7.134;2023-03-01T15:21:37;8.60;82.80
20068;DHT22;10194;50.824;7.134;2023-03-01T15:26:58;8.70;82.50
20068;DHT22;10194;50.824;7.134;2023-03-01T15:29:29;8.70;81.70
20068;DHT22;10194;50.824;7.134;2023-03-01T15:34:34;8.60;87.20
20068;DHT22;10194;50.824;7.134;2023-03-01T15:37:15;8.50;87.30
20068;DHT22;10194;50.824;7.134;2023-03-01T15:40:18;8.50;88.20
20068;DHT22;10194;50.824;7.134;2023-03-01T15:42:44;8.50;88.50
20068;DHT22;10194;50.824;7.134;2023-03-01T15:47:57;8.50;89.50
20068;DHT22;10194;50.824;7.134;2023-03-01T15:52:55;8.50;89.00
20068;DHT22;10194;50.824;7.134;2023-03-01T15:58:01;8.30;90.10
20068;DHT22;10194;50.824;7.134;2023-03-01T16:00:29;8.30;90.20
20068;DHT22;10194;50.824;7.134;2023-03-01T16:02:55;8.20;90.30
20068;DHT22;10194;50.824;7.134;2023-03-01T16:05:26;8.30;90.80
20068;DHT22;10194;50.824;7.134;2023-03-01T16:07:56;8.30;90.40
20068;DHT22;10194;50.824;7.134;2023-03-01T16:10:22;8.20;90.30
20068;DHT22;10194;50.824;7.134;2023-03-01T16:12:49;8.20;90.40
20068;DHT22;10194;50.824;7.134;2023-03-01T16:15:22;8.20;90.40
20068;DHT22;10194;50.824;7.134;2023-03-01T16:17:56;8.10;91.00
20068;DHT22;10194;50.824;7.134;2023-03-01T16:20:24;8.10;90.50
20068;DHT22;10194;50.824;7.134;2023-03-01T16:22:50;8.10;90.30
20068;DHT22;10194;50.824;7.134;2023-03-01T16:25:19;8.00;90.40
20068;DHT22;10194;50.824;7.134;2023-03-01T16:27:49;7.90;90.20
20068;DHT22;10194;50.824;7.134;2023-03-01T16:30:19;7.90;89.00
20068;DHT22;10194;50.824;7.134;2023-03-01T16:32:46;7.90;89.40
20068;DHT22;10194;50.824;7.134;2023-03-01T16:35:15;7.80;90.10
20068;DHT22;10194;50.824;7.134;2023-03-01T16:37:43;7.80;89.90
20068;DHT22;10194;50.824;7.134;2023-03-01T16:40:26;7.70;89.30
20068;DHT22;10194;50.824;7.134;2023-03-01T16:42:55;7.60;90.20
20068;DHT22;10194;50.824;7.134;2023-03-01T16:45:25;7.40;90.60
20068;DHT22;10194;50.824;7.134;2023-03-01T16:47:54;7.40;90.30
20068;DHT22;10194;50.824;7.134;2023-03-01T16:50:20;7.40;90.50
20068;DHT22;10194;50.824;7.134;2023-03-01T16:52:46;7.30;91.00
20068;DHT22;10194;50.824;7.134;2023-03-01T16:55:12;7.20;90.70
20068;DHT22;10194;50.824;7.134;2023-03-01T16:57:39;7.20;90.80
20068;DHT22;10194;50.824;7.134;2023-03-01T17:00:07;7.20;91.00
20068;DHT22;10194;50.824;7.134;2023-03-01T17:02:36;7.00;91.20
20068;DHT22;10194;50.824;7.134;2023-03-01T17:05:02;6.90;91.40
20068;DHT22;10194;50.824;7.134;2023-03-01T17:07:30;6.90;91.50
20068;DHT22;10194;50.824;7.134;2023-03-01T17:09:59;6.80;91.80
20068;DHT22;10194;50.824;7.134;2023-03-01T17:12:25;6.70;91.80
20068;DHT22;10194;50.824;7.134;2023-03-01T17:14:51;6.60;91.90
20068;DHT22;10194;50.824;7.134;2023-03-01T17:17:17;6.50;92.50
20068;DHT22;10194;50.824;7.134;2023-03-01T17:19:43;6.40;92.70
20068;DHT22;10194;50.824;7.134;2023-03-01T17:22:10;6.30;93.10
20068;DHT22;10194;50.824;7.134;2023-03-01T17:24:39;6.20;93.30
20068;DHT22;10194;50.824;7.134;2023-03-01T17:27:06;6.10;93.50
20068;DHT22;10194;50.824;7.134;2023-03-01T17:29:33;6.00;93.90
20068;DHT22;10194;50.824;7.134;2023-03-01T17:31:59;5.90;94.40
20068;DHT22;10194;50.824;7.134;2023-03-01T17:34:25;5.80;94.70
20068;DHT22;10194;50.824;7.134;2023-03-01T17:36:51;5.70;95.00
20068;DHT22;10194;50.824;7.134;2023-03-01T17:39:18;5.60;95.30
20068;DHT22;10194;50.824;7.134;2023-03-01T17:42:03;5.60;95.40
20068;DHT22;10194;50.824;7.134;2023-03-01T17:44:31;5.50;95.70
20068;DHT22;10194;50.824;7.134;2023-03-01T17:47:01;5.40;96.00
20068;DHT22;10194;50.824;7.134;2023-03-01T17:49:28;5.30;96.20
20068;DHT22;10194;50.824;7.134;2023-03-01T17:51:54;5.30;96.60
20068;DHT22;10194;50.824;7.134;2023-03-01T17:54:20;5.10;97.30
20068;DHT22;10194;50.824;7.134;2023-03-01T17:56:45;5.00;97.80